Weather at Ezpeleta Airport

Public forecast

Using degrees Celsius for public forecast. Weather courtesy of forecast.io.

Closest aviation weather report (METAR) to Ezpeleta Airport

Closest report is Jorge Newbery Airpark, 15.4 nm (28.5 km) NW.

2022/12/08 13:00 (retrieved 1 hour ago)

SABE 081300Z 36003KT 290V050 CAVOK 27/20 Q1006 NOSIG RMK PP000

Closest aviation forecast (TAF) to Ezpeleta Airport

Closest forecast is Jorge Newbery Airpark, 15.4 nm (28.5 km) NW.

2022/12/08 13:21 Ammendment (retrieved 45 minutes ago)

TAF AMD SABE 081215Z 0813/0912 05005KT CAVOK TX33/0818Z TN25/0910Z BECMG 0822/0901 09010KT BECMG 0905/0907 05015KT 9999 BKN040 TEMPO 0906/0912 6000 -SHRA FEW045TCU